sensor_id;sensor_type;location;lat;lon;timestamp;P1;durP1;ratioP1;P2;durP2;ratioP2
3343;SDS011;1685;53.104;8.228;2023-04-01T00:00:47;26.33;;;17.37;;
3343;SDS011;1685;53.104;8.228;2023-04-01T00:03:14;23.73;;;15.83;;
3343;SDS011;1685;53.104;8.228;2023-04-01T00:05:42;27.07;;;15.93;;
3343;SDS011;1685;53.104;8.228;2023-04-01T00:08:09;25.30;;;16.70;;
3343;SDS011;1685;53.104;8.228;2023-04-01T00:10:37;34.80;;;18.93;;
3343;SDS011;1685;53.104;8.228;2023-04-01T00:13:04;27.17;;;17.40;;
3343;SDS011;1685;53.104;8.228;2023-04-01T00:15:32;28.80;;;16.70;;
3343;SDS011;1685;53.104;8.228;2023-04-01T00:17:59;27.97;;;18.27;;
3343;SDS011;1685;53.104;8.228;2023-04-01T00:20:26;30.70;;;19.30;;
3343;SDS011;1685;53.104;8.228;2023-04-01T00:22:53;26.73;;;18.10;;
3343;SDS011;1685;53.104;8.228;2023-04-01T00:25:21;32.90;;;19.93;;
3343;SDS011;1685;53.104;8.228;2023-04-01T00:27:50;31.73;;;20.20;;
3343;SDS011;1685;53.104;8.228;2023-04-01T00:30:16;33.00;;;21.37;;
3343;SDS011;1685;53.104;8.228;2023-04-01T00:32:43;36.90;;;21.43;;
3343;SDS011;1685;53.104;8.228;2023-04-01T00:35:11;34.27;;;21.30;;
3343;SDS011;1685;53.104;8.228;2023-04-01T00:37:38;38.80;;;22.90;;
3343;SDS011;1685;53.104;8.228;2023-04-01T00:40:06;38.80;;;22.47;;
3343;SDS011;1685;53.104;8.228;2023-04-01T00:42:34;38.77;;;22.00;;
3343;SDS011;1685;53.104;8.228;2023-04-01T00:47:44;34.93;;;22.47;;
3343;SDS011;1685;53.104;8.228;2023-04-01T00:50:11;34.67;;;22.80;;
3343;SDS011;1685;53.104;8.228;2023-04-01T00:52:38;32.60;;;20.17;;
3343;SDS011;1685;53.104;8.228;2023-04-01T00:55:05;34.37;;;20.57;;
3343;SDS011;1685;53.104;8.228;2023-04-01T00:57:34;34.80;;;21.07;;
3343;SDS011;1685;53.104;8.228;2023-04-01T01:00:03;31.57;;;19.30;;
3343;SDS011;1685;53.104;8.228;2023-04-01T01:02:32;32.37;;;20.80;;
3343;SDS011;1685;53.104;8.228;2023-04-01T01:05:01;33.50;;;21.77;;
3343;SDS011;1685;53.104;8.228;2023-04-01T01:07:29;38.20;;;21.13;;
3343;SDS011;1685;53.104;8.228;2023-04-01T01:10:05;26.97;;;18.23;;
3343;SDS011;1685;53.104;8.228;2023-04-01T01:12:39;28.03;;;18.97;;
3343;SDS011;1685;53.104;8.228;2023-04-01T01:15:08;29.27;;;18.00;;
3343;SDS011;1685;53.104;8.228;2023-04-01T01:17:44;27.73;;;18.97;;
3343;SDS011;1685;53.104;8.228;2023-04-01T01:20:32;28.37;;;18.43;;
3343;SDS011;1685;53.104;8.228;2023-04-01T01:23:11;34.43;;;18.90;;
3343;SDS011;1685;53.104;8.228;2023-04-01T01:25:58;30.43;;;17.17;;
3343;SDS011;1685;53.104;8.228;2023-04-01T01:28:42;30.10;;;17.60;;
3343;SDS011;1685;53.104;8.228;2023-04-01T01:31:18;29.87;;;19.10;;
3343;SDS011;1685;53.104;8.228;2023-04-01T01:33:50;30.27;;;17.70;;
3343;SDS011;1685;53.104;8.228;2023-04-01T01:36:29;28.77;;;18.27;;
3343;SDS011;1685;53.104;8.228;2023-04-01T01:38:59;33.10;;;18.07;;
3343;SDS011;1685;53.104;8.228;2023-04-01T01:41:27;31.10;;;18.33;;
3343;SDS011;1685;53.104;8.228;2023-04-01T01:43:54;32.47;;;18.23;;
3343;SDS011;1685;53.104;8.228;2023-04-01T01:46:25;28.30;;;17.50;;
3343;SDS011;1685;53.104;8.228;2023-04-01T01:48:53;28.10;;;18.13;;
3343;SDS011;1685;53.104;8.228;2023-04-01T01:51:21;30.13;;;17.80;;
3343;SDS011;1685;53.104;8.228;2023-04-01T01:53:50;32.83;;;18.83;;
3343;SDS011;1685;53.104;8.228;2023-04-01T01:56:17;33.20;;;17.27;;
3343;SDS011;1685;53.104;8.228;2023-04-01T01:58:45;30.13;;;19.13;;
3343;SDS011;1685;53.104;8.228;2023-04-01T02:01:14;34.80;;;18.47;;
3343;SDS011;1685;53.104;8.228;2023-04-01T02:03:44;27.37;;;17.60;;
3343;SDS011;1685;53.104;8.228;2023-04-01T02:06:13;31.57;;;18.07;;
3343;SDS011;1685;53.104;8.228;2023-04-01T02:08:42;33.77;;;20.60;;
3343;SDS011;1685;53.104;8.228;2023-04-01T02:11:13;31.40;;;19.40;;
3343;SDS011;1685;53.104;8.228;2023-04-01T02:13:45;31.20;;;19.23;;
3343;SDS011;1685;53.104;8.228;2023-04-01T02:16:18;33.33;;;20.20;;
3343;SDS011;1685;53.104;8.228;2023-04-01T02:18:47;32.53;;;18.67;;
3343;SDS011;1685;53.104;8.228;2023-04-01T02:21:18;35.00;;;18.50;;
3343;SDS011;1685;53.104;8.228;2023-04-01T02:23:48;35.30;;;19.20;;
3343;SDS011;1685;53.104;8.228;2023-04-01T02:26:18;29.60;;;17.47;;
3343;SDS011;1685;53.104;8.228;2023-04-01T02:28:46;34.40;;;18.63;;
3343;SDS011;1685;53.104;8.228;2023-04-01T02:31:16;30.33;;;18.47;;
3343;SDS011;1685;53.104;8.228;2023-04-01T02:33:44;28.60;;;19.03;;
3343;SDS011;1685;53.104;8.228;2023-04-01T02:36:12;29.83;;;17.20;;
3343;SDS011;1685;53.104;8.228;2023-04-01T02:38:41;31.93;;;19.87;;
3343;SDS011;1685;53.104;8.228;2023-04-01T02:41:08;27.73;;;18.40;;
3343;SDS011;1685;53.104;8.228;2023-04-01T02:43:37;31.67;;;18.50;;
3343;SDS011;1685;53.104;8.228;2023-04-01T02:46:04;32.97;;;17.80;;
3343;SDS011;1685;53.104;8.228;2023-04-01T02:48:31;29.27;;;19.20;;
3343;SDS011;1685;53.104;8.228;2023-04-01T02:50:58;28.63;;;18.80;;
3343;SDS011;1685;53.104;8.228;2023-04-01T02:53:25;28.43;;;18.00;;
3343;SDS011;1685;53.104;8.228;2023-04-01T02:55:52;36.30;;;19.07;;
3343;SDS011;1685;53.104;8.228;2023-04-01T02:58:19;32.47;;;18.83;;
3343;SDS011;1685;53.104;8.228;2023-04-01T03:00:47;32.67;;;18.80;;
3343;SDS011;1685;53.104;8.228;2023-04-01T03:03:14;33.17;;;19.30;;
3343;SDS011;1685;53.104;8.228;2023-04-01T03:05:41;33.40;;;18.57;;
3343;SDS011;1685;53.104;8.228;2023-04-01T03:08:08;30.73;;;17.67;;
3343;SDS011;1685;53.104;8.228;2023-04-01T03:10:36;27.80;;;17.67;;
3343;SDS011;1685;53.104;8.228;2023-04-01T03:13:03;31.23;;;17.90;;
3343;SDS011;1685;53.104;8.228;2023-04-01T03:15:31;31.93;;;18.77;;
3343;SDS011;1685;53.104;8.228;2023-04-01T03:17:59;34.23;;;17.50;;
3343;SDS011;1685;53.104;8.228;2023-04-01T03:20:26;29.53;;;17.80;;
3343;SDS011;1685;53.104;8.228;2023-04-01T03:22:53;33.60;;;19.30;;
3343;SDS011;1685;53.104;8.228;2023-04-01T03:25:20;33.20;;;19.60;;
3343;SDS011;1685;53.104;8.228;2023-04-01T03:28:06;32.80;;;17.40;;
3343;SDS011;1685;53.104;8.228;2023-04-01T03:30:33;33.27;;;18.70;;
3343;SDS011;1685;53.104;8.228;2023-04-01T03:33:02;36.67;;;18.00;;
3343;SDS011;1685;53.104;8.228;2023-04-01T03:35:29;28.70;;;17.00;;
3343;SDS011;1685;53.104;8.228;2023-04-01T03:37:56;31.27;;;19.27;;
3343;SDS011;1685;53.104;8.228;2023-04-01T03:40:23;28.10;;;17.47;;
3343;SDS011;1685;53.104;8.228;2023-04-01T03:42:52;29.37;;;19.00;;
3343;SDS011;1685;53.104;8.228;2023-04-01T03:45:19;28.33;;;18.07;;
3343;SDS011;1685;53.104;8.228;2023-04-01T03:47:46;35.67;;;18.17;;
3343;SDS011;1685;53.104;8.228;2023-04-01T03:50:14;36.27;;;17.87;;
3343;SDS011;1685;53.104;8.228;2023-04-01T03:52:41;25.10;;;16.73;;
3343;SDS011;1685;53.104;8.228;2023-04-01T03:55:08;28.67;;;18.00;;
3343;SDS011;1685;53.104;8.228;2023-04-01T03:57:36;26.90;;;16.80;;
3343;SDS011;1685;53.104;8.228;2023-04-01T04:00:03;25.70;;;15.87;;
3343;SDS011;1685;53.104;8.228;2023-04-01T04:02:31;37.23;;;18.63;;
3343;SDS011;1685;53.104;8.228;2023-04-01T04:04:58;30.83;;;16.50;;
3343;SDS011;1685;53.104;8.228;2023-04-01T04:07:26;31.60;;;17.27;;
3343;SDS011;1685;53.104;8.228;2023-04-01T04:09:53;28.57;;;16.63;;
3343;SDS011;1685;53.104;8.228;2023-04-01T04:12:20;27.03;;;15.27;;
3343;SDS011;1685;53.104;8.228;2023-04-01T04:14:47;31.27;;;16.17;;
3343;SDS011;1685;53.104;8.228;2023-04-01T04:17:14;23.37;;;15.33;;
3343;SDS011;1685;53.104;8.228;2023-04-01T04:19:41;33.20;;;17.20;;
3343;SDS011;1685;53.104;8.228;2023-04-01T04:22:08;34.20;;;16.83;;
3343;SDS011;1685;53.104;8.228;2023-04-01T04:24:37;32.00;;;17.00;;
3343;SDS011;1685;53.104;8.228;2023-04-01T04:27:04;29.00;;;15.40;;
3343;SDS011;1685;53.104;8.228;2023-04-01T04:29:31;31.77;;;19.43;;
3343;SDS011;1685;53.104;8.228;2023-04-01T04:31:58;29.50;;;14.73;;
3343;SDS011;1685;53.104;8.228;2023-04-01T04:34:25;30.07;;;18.33;;
3343;SDS011;1685;53.104;8.228;2023-04-01T04:36:52;25.87;;;15.70;;
3343;SDS011;1685;53.104;8.228;2023-04-01T04:39:19;29.77;;;16.17;;
3343;SDS011;1685;53.104;8.228;2023-04-01T04:41:47;24.90;;;13.30;;
3343;SDS011;1685;53.104;8.228;2023-04-01T04:44:14;31.10;;;13.90;;
3343;SDS011;1685;53.104;8.228;2023-04-01T04:46:41;33.57;;;14.40;;
3343;SDS011;1685;53.104;8.228;2023-04-01T04:49:08;25.80;;;13.80;;
3343;SDS011;1685;53.104;8.228;2023-04-01T04:51:35;22.40;;;13.67;;
3343;SDS011;1685;53.104;8.228;2023-04-01T04:54:03;26.07;;;14.07;;
3343;SDS011;1685;53.104;8.228;2023-04-01T04:56:30;23.50;;;14.27;;
3343;SDS011;1685;53.104;8.228;2023-04-01T04:58:59;23.70;;;13.87;;
3343;SDS011;1685;53.104;8.228;2023-04-01T05:01:25;22.03;;;12.73;;
3343;SDS011;1685;53.104;8.228;2023-04-01T05:03:52;22.60;;;13.50;;
3343;SDS011;1685;53.104;8.228;2023-04-01T05:06:20;20.30;;;12.73;;
3343;SDS011;1685;53.104;8.228;2023-04-01T05:08:47;20.00;;;12.97;;
3343;SDS011;1685;53.104;8.228;2023-04-01T05:11:15;23.70;;;14.23;;
3343;SDS011;1685;53.104;8.228;2023-04-01T05:13:43;20.73;;;13.67;;
3343;SDS011;1685;53.104;8.228;2023-04-01T05:16:13;28.93;;;13.33;;
3343;SDS011;1685;53.104;8.228;2023-04-01T05:18:41;26.60;;;14.30;;
3343;SDS011;1685;53.104;8.228;2023-04-01T05:21:08;23.07;;;13.30;;
3343;SDS011;1685;53.104;8.228;2023-04-01T05:23:36;25.53;;;13.00;;
3343;SDS011;1685;53.104;8.228;2023-04-01T05:26:03;31.10;;;13.57;;
3343;SDS011;1685;53.104;8.228;2023-04-01T05:28:31;27.57;;;14.83;;
3343;SDS011;1685;53.104;8.228;2023-04-01T05:30:58;24.00;;;13.03;;
3343;SDS011;1685;53.104;8.228;2023-04-01T05:33:27;23.73;;;13.47;;
3343;SDS011;1685;53.104;8.228;2023-04-01T05:35:54;18.23;;;11.43;;
3343;SDS011;1685;53.104;8.228;2023-04-01T05:38:22;24.67;;;13.83;;
3343;SDS011;1685;53.104;8.228;2023-04-01T05:40:49;19.70;;;13.00;;
3343;SDS011;1685;53.104;8.228;2023-04-01T05:43:16;26.40;;;14.43;;
3343;SDS011;1685;53.104;8.228;2023-04-01T05:45:43;25.73;;;13.87;;
3343;SDS011;1685;53.104;8.228;2023-04-01T05:48:10;20.70;;;13.43;;
3343;SDS011;1685;53.104;8.228;2023-04-01T05:50:39;21.83;;;13.10;;
3343;SDS011;1685;53.104;8.228;2023-04-01T05:53:06;20.63;;;13.03;;
3343;SDS011;1685;53.104;8.228;2023-04-01T05:55:34;19.60;;;12.73;;
3343;SDS011;1685;53.104;8.228;2023-04-01T05:58:01;21.47;;;13.13;;
3343;SDS011;1685;53.104;8.228;2023-04-01T06:00:28;22.97;;;13.13;;
3343;SDS011;1685;53.104;8.228;2023-04-01T06:02:55;18.90;;;13.17;;
3343;SDS011;1685;53.104;8.228;2023-04-01T06:05:25;18.57;;;12.70;;
3343;SDS011;1685;53.104;8.228;2023-04-01T06:07:55;21.63;;;13.57;;
3343;SDS011;1685;53.104;8.228;2023-04-01T06:10:33;17.20;;;12.23;;
3343;SDS011;1685;53.104;8.228;2023-04-01T06:13:09;20.03;;;11.83;;
3343;SDS011;1685;53.104;8.228;2023-04-01T06:15:48;18.90;;;12.80;;
3343;SDS011;1685;53.104;8.228;2023-04-01T06:18:39;18.60;;;13.20;;
3343;SDS011;1685;53.104;8.228;2023-04-01T06:21:18;17.60;;;11.67;;
3343;SDS011;1685;53.104;8.228;2023-04-01T06:24:18;21.70;;;12.50;;
3343;SDS011;1685;53.104;8.228;2023-04-01T06:26:58;18.97;;;12.70;;
3343;SDS011;1685;53.104;8.228;2023-04-01T06:29:43;23.50;;;13.90;;
3343;SDS011;1685;53.104;8.228;2023-04-01T06:32:29;18.37;;;13.03;;
3343;SDS011;1685;53.104;8.228;2023-04-01T06:35:14;23.53;;;13.17;;
3343;SDS011;1685;53.104;8.228;2023-04-01T06:40:53;19.37;;;12.47;;
3343;SDS011;1685;53.104;8.228;2023-04-01T06:43:42;16.50;;;12.40;;
3343;SDS011;1685;53.104;8.228;2023-04-01T06:46:17;18.70;;;11.63;;
3343;SDS011;1685;53.104;8.228;2023-04-01T06:48:57;20.93;;;13.40;;
3343;SDS011;1685;53.104;8.228;2023-04-01T06:51:39;17.47;;;12.37;;
3343;SDS011;1685;53.104;8.228;2023-04-01T06:54:15;17.87;;;12.50;;
3343;SDS011;1685;53.104;8.228;2023-04-01T06:56:48;17.67;;;12.90;;
3343;SDS011;1685;53.104;8.228;2023-04-01T06:59:20;20.13;;;13.40;;
3343;SDS011;1685;53.104;8.228;2023-04-01T07:01:51;22.87;;;13.20;;
3343;SDS011;1685;53.104;8.228;2023-04-01T07:04:21;14.67;;;11.23;;
3343;SDS011;1685;53.104;8.228;2023-04-01T07:06:52;18.57;;;13.40;;
3343;SDS011;1685;53.104;8.228;2023-04-01T07:09:24;16.37;;;11.67;;
3343;SDS011;1685;53.104;8.228;2023-04-01T07:11:59;32.87;;;11.87;;
3343;SDS011;1685;53.104;8.228;2023-04-01T07:14:30;14.87;;;12.17;;
3343;SDS011;1685;53.104;8.228;2023-04-01T07:17:02;15.17;;;10.57;;
3343;SDS011;1685;53.104;8.228;2023-04-01T07:19:32;21.20;;;12.40;;
3343;SDS011;1685;53.104;8.228;2023-04-01T07:22:06;14.57;;;10.10;;
3343;SDS011;1685;53.104;8.228;2023-04-01T07:24:43;18.07;;;11.20;;
3343;SDS011;1685;53.104;8.228;2023-04-01T07:27:13;15.93;;;11.00;;
3343;SDS011;1685;53.104;8.228;2023-04-01T07:29:41;14.80;;;11.50;;
3343;SDS011;1685;53.104;8.228;2023-04-01T07:32:20;14.83;;;10.47;;
3343;SDS011;1685;53.104;8.228;2023-04-01T07:35:03;14.97;;;11.27;;
3343;SDS011;1685;53.104;8.228;2023-04-01T07:37:39;12.97;;;9.50;;
3343;SDS011;1685;53.104;8.228;2023-04-01T07:40:17;11.83;;;10.20;;
3343;SDS011;1685;53.104;8.228;2023-04-01T07:42:57;15.53;;;11.07;;
3343;SDS011;1685;53.104;8.228;2023-04-01T07:45:36;14.40;;;9.60;;
3343;SDS011;1685;53.104;8.228;2023-04-01T07:48:15;15.07;;;10.43;;
3343;SDS011;1685;53.104;8.228;2023-04-01T07:50:47;12.90;;;9.57;;
3343;SDS011;1685;53.104;8.228;2023-04-01T07:53:22;10.53;;;9.10;;
3343;SDS011;1685;53.104;8.228;2023-04-01T07:55:58;10.40;;;9.07;;
3343;SDS011;1685;53.104;8.228;2023-04-01T07:58:33;11.57;;;9.10;;
3343;SDS011;1685;53.104;8.228;2023-04-01T08:01:11;14.67;;;9.70;;
3343;SDS011;1685;53.104;8.228;2023-04-01T08:03:51;12.70;;;9.67;;
3343;SDS011;1685;53.104;8.228;2023-04-01T08:06:32;13.47;;;9.50;;
3343;SDS011;1685;53.104;8.228;2023-04-01T08:09:06;12.33;;;8.47;;
3343;SDS011;1685;53.104;8.228;2023-04-01T08:11:46;11.03;;;9.10;;
3343;SDS011;1685;53.104;8.228;2023-04-01T08:14:28;9.80;;;8.57;;
3343;SDS011;1685;53.104;8.228;2023-04-01T08:17:03;13.13;;;8.67;;
3343;SDS011;1685;53.104;8.228;2023-04-01T08:19:39;10.73;;;8.90;;
3343;SDS011;1685;53.104;8.228;2023-04-01T08:22:21;9.73;;;8.33;;
3343;SDS011;1685;53.104;8.228;2023-04-01T08:24:52;13.33;;;9.60;;
3343;SDS011;1685;53.104;8.228;2023-04-01T08:27:26;12.30;;;8.63;;
3343;SDS011;1685;53.104;8.228;2023-04-01T08:30:04;10.03;;;7.90;;
3343;SDS011;1685;53.104;8.228;2023-04-01T08:32:42;10.93;;;8.77;;
3343;SDS011;1685;53.104;8.228;2023-04-01T08:35:14;15.93;;;9.83;;
3343;SDS011;1685;53.104;8.228;2023-04-01T08:37:47;14.90;;;8.10;;
3343;SDS011;1685;53.104;8.228;2023-04-01T08:40:24;15.90;;;8.13;;
3343;SDS011;1685;53.104;8.228;2023-04-01T08:43:06;11.40;;;7.80;;
3343;SDS011;1685;53.104;8.228;2023-04-01T08:45:56;9.67;;;7.63;;
3343;SDS011;1685;53.104;8.228;2023-04-01T08:48:48;7.60;;;6.90;;
3343;SDS011;1685;53.104;8.228;2023-04-01T08:51:39;8.00;;;6.90;;
3343;SDS011;1685;53.104;8.228;2023-04-01T08:54:36;6.63;;;5.93;;
3343;SDS011;1685;53.104;8.228;2023-04-01T08:57:13;6.10;;;5.60;;
3343;SDS011;1685;53.104;8.228;2023-04-01T08:59:50;6.60;;;5.53;;
3343;SDS011;1685;53.104;8.228;2023-04-01T09:05:44;6.50;;;5.90;;
3343;SDS011;1685;53.104;8.228;2023-04-01T09:08:36;6.80;;;6.20;;
3343;SDS011;1685;53.104;8.228;2023-04-01T09:11:17;6.13;;;5.60;;
3343;SDS011;1685;53.104;8.228;2023-04-01T09:13:58;4.70;;;4.40;;
3343;SDS011;1685;53.104;8.228;2023-04-01T09:16:48;5.87;;;5.27;;
3343;SDS011;1685;53.104;8.228;2023-04-01T09:19:30;4.47;;;4.17;;
3343;SDS011;1685;53.104;8.228;2023-04-01T09:22:18;4.47;;;4.17;;
3343;SDS011;1685;53.104;8.228;2023-04-01T09:25:02;5.20;;;3.83;;
3343;SDS011;1685;53.104;8.228;2023-04-01T09:27:49;4.37;;;4.07;;
3343;SDS011;1685;53.104;8.228;2023-04-01T09:30:33;3.77;;;3.47;;
3343;SDS011;1685;53.104;8.228;2023-04-01T09:33:43;2.90;;;2.80;;
3343;SDS011;1685;53.104;8.228;2023-04-01T09:36:42;3.50;;;3.23;;
3343;SDS011;1685;53.104;8.228;2023-04-01T09:39:25;2.67;;;2.47;;
3343;SDS011;1685;53.104;8.228;2023-04-01T09:42:06;3.27;;;3.07;;
3343;SDS011;1685;53.104;8.228;2023-04-01T09:44:41;2.73;;;2.53;;
3343;SDS011;1685;53.104;8.228;2023-04-01T09:47:16;2.47;;;2.27;;
3343;SDS011;1685;53.104;8.228;2023-04-01T09:50:00;3.20;;;3.00;;
3343;SDS011;1685;53.104;8.228;2023-04-01T09:52:44;3.23;;;3.03;;
3343;SDS011;1685;53.104;8.228;2023-04-01T09:55:20;3.50;;;3.30;;
3343;SDS011;1685;53.104;8.228;2023-04-01T09:58:10;4.67;;;4.30;;
3343;SDS011;1685;53.104;8.228;2023-04-01T10:01:05;4.30;;;4.00;;
3343;SDS011;1685;53.104;8.228;2023-04-01T10:04:13;4.27;;;3.97;;
3343;SDS011;1685;53.104;8.228;2023-04-01T10:07:17;4.20;;;4.00;;
3343;SDS011;1685;53.104;8.228;2023-04-01T10:22:15;6.00;;;5.50;;
3343;SDS011;1685;53.104;8.228;2023-04-01T10:25:05;5.63;;;4.40;;
3343;SDS011;1685;53.104;8.228;2023-04-01T10:33:45;1.90;;;1.70;;
3343;SDS011;1685;53.104;8.228;2023-04-01T10:36:48;1.83;;;1.83;;
3343;SDS011;1685;53.104;8.228;2023-04-01T10:42:32;2.20;;;2.10;;
3343;SDS011;1685;53.104;8.228;2023-04-01T10:48:57;1.83;;;1.73;;
3343;SDS011;1685;53.104;8.228;2023-04-01T10:55:14;2.63;;;2.43;;
3343;SDS011;1685;53.104;8.228;2023-04-01T10:58:04;1.30;;;1.20;;
3343;SDS011;1685;53.104;8.228;2023-04-01T11:00:53;1.07;;;1.07;;
3343;SDS011;1685;53.104;8.228;2023-04-01T11:06:57;1.10;;;1.10;;
3343;SDS011;1685;53.104;8.228;2023-04-01T11:10:07;1.20;;;1.20;;
3343;SDS011;1685;53.104;8.228;2023-04-01T11:13:02;4.63;;;1.30;;
3343;SDS011;1685;53.104;8.228;2023-04-01T11:15:59;1.13;;;1.13;;
3343;SDS011;1685;53.104;8.228;2023-04-01T11:24:56;2.23;;;2.13;;
3343;SDS011;1685;53.104;8.228;2023-04-01T11:27:42;2.60;;;2.50;;
3343;SDS011;1685;53.104;8.228;2023-04-01T11:30:33;2.13;;;2.03;;
3343;SDS011;1685;53.104;8.228;2023-04-01T11:33:11;3.43;;;3.23;;
3343;SDS011;1685;53.104;8.228;2023-04-01T11:35:52;2.40;;;2.30;;
3343;SDS011;1685;53.104;8.228;2023-04-01T11:38:29;2.10;;;2.03;;
3343;SDS011;1685;53.104;8.228;2023-04-01T11:41:09;3.27;;;2.37;;
3343;SDS011;1685;53.104;8.228;2023-04-01T11:43:49;3.37;;;3.17;;
3343;SDS011;1685;53.104;8.228;2023-04-01T11:46:30;1.60;;;1.60;;
3343;SDS011;1685;53.104;8.228;2023-04-01T11:49:05;2.03;;;1.93;;
3343;SDS011;1685;53.104;8.228;2023-04-01T11:51:50;1.40;;;1.40;;
3343;SDS011;1685;53.104;8.228;2023-04-01T11:54:29;1.70;;;1.70;;
3343;SDS011;1685;53.104;8.228;2023-04-01T11:57:13;3.30;;;3.00;;
3343;SDS011;1685;53.104;8.228;2023-04-01T12:00:13;2.70;;;2.60;;
3343;SDS011;1685;53.104;8.228;2023-04-01T12:02:50;2.50;;;2.40;;
3343;SDS011;1685;53.104;8.228;2023-04-01T12:05:37;1.93;;;1.83;;
3343;SDS011;1685;53.104;8.228;2023-04-01T12:08:15;2.10;;;2.00;;
3343;SDS011;1685;53.104;8.228;2023-04-01T12:10:53;2.23;;;2.07;;
3343;SDS011;1685;53.104;8.228;2023-04-01T12:13:27;1.50;;;1.50;;
3343;SDS011;1685;53.104;8.228;2023-04-01T12:16:11;5.63;;;1.97;;
3343;SDS011;1685;53.104;8.228;2023-04-01T12:18:50;2.27;;;2.13;;
3343;SDS011;1685;53.104;8.228;2023-04-01T12:21:22;1.50;;;1.50;;
3343;SDS011;1685;53.104;8.228;2023-04-01T12:24:01;2.10;;;1.70;;
3343;SDS011;1685;53.104;8.228;2023-04-01T12:26:43;1.57;;;1.47;;
3343;SDS011;1685;53.104;8.228;2023-04-01T12:29:32;1.37;;;1.37;;
3343;SDS011;1685;53.104;8.228;2023-04-01T12:32:20;1.53;;;1.53;;
3343;SDS011;1685;53.104;8.228;2023-04-01T12:37:45;2.20;;;2.10;;
3343;SDS011;1685;53.104;8.228;2023-04-01T12:40:23;3.90;;;2.60;;
3343;SDS011;1685;53.104;8.228;2023-04-01T12:45:58;4.17;;;3.77;;
3343;SDS011;1685;53.104;8.228;2023-04-01T12:51:31;4.03;;;1.80;;
3343;SDS011;1685;53.104;8.228;2023-04-01T12:54:08;2.00;;;1.90;;
3343;SDS011;1685;53.104;8.228;2023-04-01T12:57:06;3.10;;;2.20;;
3343;SDS011;1685;53.104;8.228;2023-04-01T13:00:12;2.43;;;2.10;;
3343;SDS011;1685;53.104;8.228;2023-04-01T13:02:48;2.37;;;2.17;;
3343;SDS011;1685;53.104;8.228;2023-04-01T13:05:34;1.50;;;1.50;;
3343;SDS011;1685;53.104;8.228;2023-04-01T13:08:27;1.50;;;1.40;;
3343;SDS011;1685;53.104;8.228;2023-04-01T13:11:13;1.90;;;1.80;;
3343;SDS011;1685;53.104;8.228;2023-04-01T13:13:58;3.27;;;1.93;;
3343;SDS011;1685;53.104;8.228;2023-04-01T13:16:27;1.57;;;1.57;;
3343;SDS011;1685;53.104;8.228;2023-04-01T13:18:58;2.87;;;1.90;;
3343;SDS011;1685;53.104;8.228;2023-04-01T13:21:34;2.30;;;2.20;;
3343;SDS011;1685;53.104;8.228;2023-04-01T13:24:10;2.40;;;2.30;;
3343;SDS011;1685;53.104;8.228;2023-04-01T13:26:48;1.70;;;1.60;;
3343;SDS011;1685;53.104;8.228;2023-04-01T13:29:25;2.40;;;2.20;;
3343;SDS011;1685;53.104;8.228;2023-04-01T13:32:03;2.93;;;1.70;;
3343;SDS011;1685;53.104;8.228;2023-04-01T13:34:39;1.50;;;1.10;;
3343;SDS011;1685;53.104;8.228;2023-04-01T13:37:24;1.50;;;1.50;;
3343;SDS011;1685;53.104;8.228;2023-04-01T13:40:10;1.90;;;1.80;;
3343;SDS011;1685;53.104;8.228;2023-04-01T13:42:49;1.40;;;1.40;;
3343;SDS011;1685;53.104;8.228;2023-04-01T13:45:21;2.17;;;1.60;;
3343;SDS011;1685;53.104;8.228;2023-04-01T13:48:00;5.33;;;1.40;;
3343;SDS011;1685;53.104;8.228;2023-04-01T13:50:55;1.40;;;0.90;;
3343;SDS011;1685;53.104;8.228;2023-04-01T13:53:47;2.30;;;1.80;;
3343;SDS011;1685;53.104;8.228;2023-04-01T13:56:34;2.03;;;1.93;;
3343;SDS011;1685;53.104;8.228;2023-04-01T13:59:24;2.00;;;1.90;;
3343;SDS011;1685;53.104;8.228;2023-04-01T14:02:13;2.40;;;2.30;;
3343;SDS011;1685;53.104;8.228;2023-04-01T14:04:53;2.43;;;2.33;;
3343;SDS011;1685;53.104;8.228;2023-04-01T14:07:40;3.00;;;2.90;;
3343;SDS011;1685;53.104;8.228;2023-04-01T14:10:18;3.03;;;2.93;;
3343;SDS011;1685;53.104;8.228;2023-04-01T14:12:50;2.90;;;2.70;;
3343;SDS011;1685;53.104;8.228;2023-04-01T14:15:36;2.13;;;2.03;;
3343;SDS011;1685;53.104;8.228;2023-04-01T14:18:41;2.03;;;1.93;;
3343;SDS011;1685;53.104;8.228;2023-04-01T14:21:23;1.57;;;1.57;;
3343;SDS011;1685;53.104;8.228;2023-04-01T14:27:02;2.40;;;2.30;;
3343;SDS011;1685;53.104;8.228;2023-04-01T14:29:53;3.93;;;3.60;;
3343;SDS011;1685;53.104;8.228;2023-04-01T14:32:27;4.30;;;4.10;;
3343;SDS011;1685;53.104;8.228;2023-04-01T14:35:13;4.57;;;4.27;;
3343;SDS011;1685;53.104;8.228;2023-04-01T14:40:47;3.70;;;3.50;;
3343;SDS011;1685;53.104;8.228;2023-04-01T14:43:23;5.43;;;5.03;;
3343;SDS011;1685;53.104;8.228;2023-04-01T14:46:01;6.53;;;6.03;;
3343;SDS011;1685;53.104;8.228;2023-04-01T14:48:38;6.90;;;6.33;;
3343;SDS011;1685;53.104;8.228;2023-04-01T14:51:10;6.60;;;6.10;;
3343;SDS011;1685;53.104;8.228;2023-04-01T14:53:43;7.93;;;7.23;;
3343;SDS011;1685;53.104;8.228;2023-04-01T14:59:01;6.00;;;5.50;;
3343;SDS011;1685;53.104;8.228;2023-04-01T15:01:32;4.67;;;4.27;;
3343;SDS011;1685;53.104;8.228;2023-04-01T15:04:13;4.03;;;3.60;;
3343;SDS011;1685;53.104;8.228;2023-04-01T15:07:04;2.27;;;2.17;;
3343;SDS011;1685;53.104;8.228;2023-04-01T15:09:45;3.07;;;2.87;;
3343;SDS011;1685;53.104;8.228;2023-04-01T15:12:22;3.33;;;3.13;;
3343;SDS011;1685;53.104;8.228;2023-04-01T15:14:58;4.20;;;3.90;;
3343;SDS011;1685;53.104;8.228;2023-04-01T15:17:48;7.43;;;6.83;;
3343;SDS011;1685;53.104;8.228;2023-04-01T15:23:25;7.83;;;7.20;;
3343;SDS011;1685;53.104;8.228;2023-04-01T15:26:08;7.00;;;6.40;;
3343;SDS011;1685;53.104;8.228;2023-04-01T15:28:45;5.80;;;5.30;;
3343;SDS011;1685;53.104;8.228;2023-04-01T15:31:20;6.47;;;6.00;;
3343;SDS011;1685;53.104;8.228;2023-04-01T15:33:57;6.30;;;5.73;;
3343;SDS011;1685;53.104;8.228;2023-04-01T15:36:29;7.07;;;6.47;;
3343;SDS011;1685;53.104;8.228;2023-04-01T15:39:09;6.83;;;6.17;;
3343;SDS011;1685;53.104;8.228;2023-04-01T15:41:40;6.80;;;6.20;;
3343;SDS011;1685;53.104;8.228;2023-04-01T15:47:05;12.40;;;9.43;;
3343;SDS011;1685;53.104;8.228;2023-04-01T15:49:55;9.80;;;8.90;;
3343;SDS011;1685;53.104;8.228;2023-04-01T15:52:33;12.03;;;10.83;;
3343;SDS011;1685;53.104;8.228;2023-04-01T15:55:16;8.90;;;8.03;;
3343;SDS011;1685;53.104;8.228;2023-04-01T15:57:50;12.40;;;9.17;;
3343;SDS011;1685;53.104;8.228;2023-04-01T16:00:29;10.00;;;9.10;;
3343;SDS011;1685;53.104;8.228;2023-04-01T16:03:15;8.47;;;7.77;;
3343;SDS011;1685;53.104;8.228;2023-04-01T16:05:52;9.63;;;8.73;;
3343;SDS011;1685;53.104;8.228;2023-04-01T16:11:23;8.40;;;7.70;;
3343;SDS011;1685;53.104;8.228;2023-04-01T16:13:56;9.07;;;8.30;;
3343;SDS011;1685;53.104;8.228;2023-04-01T16:16:34;9.83;;;9.00;;
3343;SDS011;1685;53.104;8.228;2023-04-01T16:19:19;9.33;;;8.50;;
3343;SDS011;1685;53.104;8.228;2023-04-01T16:21:59;9.27;;;8.50;;
3343;SDS011;1685;53.104;8.228;2023-04-01T16:24:30;9.43;;;8.50;;
3343;SDS011;1685;53.104;8.228;2023-04-01T16:27:02;9.40;;;8.50;;
3343;SDS011;1685;53.104;8.228;2023-04-01T16:29:33;9.70;;;8.70;;
3343;SDS011;1685;53.104;8.228;2023-04-01T16:32:22;10.37;;;9.23;;
3343;SDS011;1685;53.104;8.228;2023-04-01T16:34:54;10.30;;;9.40;;
3343;SDS011;1685;53.104;8.228;2023-04-01T16:37:29;13.97;;;8.60;;
3343;SDS011;1685;53.104;8.228;2023-04-01T16:40:02;8.40;;;7.50;;
3343;SDS011;1685;53.104;8.228;2023-04-01T16:42:40;8.90;;;8.10;;
3343;SDS011;1685;53.104;8.228;2023-04-01T16:45:16;10.33;;;7.73;;
3343;SDS011;1685;53.104;8.228;2023-04-01T16:47:46;8.23;;;7.53;;
3343;SDS011;1685;53.104;8.228;2023-04-01T16:50:17;8.40;;;7.60;;
3343;SDS011;1685;53.104;8.228;2023-04-01T16:52:51;7.47;;;5.97;;
3343;SDS011;1685;53.104;8.228;2023-04-01T16:55:33;6.90;;;6.30;;
3343;SDS011;1685;53.104;8.228;2023-04-01T16:58:03;8.33;;;7.63;;
3343;SDS011;1685;53.104;8.228;2023-04-01T17:00:36;9.20;;;8.30;;
3343;SDS011;1685;53.104;8.228;2023-04-01T17:03:08;9.63;;;8.63;;
3343;SDS011;1685;53.104;8.228;2023-04-01T17:05:45;8.50;;;7.80;;